Main page
METAR-TAF:

METAR-TAF

Airports :

Annecy – Haute-Savoie – Mont Blanc Airport

Annecy, France

latitude: 45-55-45N, longitude: 006-05-56E, elevation: 463 m

Current weather observation

The report was made 35 minutes ago, at 14:30 UTC
Wind 15 kt from the North/Northeast with gusts up to 25 kt
Temperature 22°C
Humidity 29%
Pressure 1021 hPa
Visibility 10 km or more
no clouds below 1500 m and no cumulonimbus

METAR: LFLP 221430Z AUTO 02015G25KT CAVOK 22/03 Q1021 BECMG 02017KT

Time: 17:05 (15:05 UTC)

Forecast

The report was made 1 hour and 5 minutes ago, at 14:00 UTC
Forecast valid from 22 at 15 UTC to 23 at 15 UTC
Wind 17 kt from the North/Northeast
Visibility 10 km or more
no clouds below 1500 m and no cumulonimbus
Becoming
from 23 at 00 UTC to 23 at 02 UTC
Wind 7 kt from the North/Northeast
Temporary
from 23 at 03 UTC to 23 at 08 UTC
Wind 2 kt from variable directions

TAF: LFLP 221400Z 2215/2315 02017KT CAVOK BECMG 2300/2302 02007KT TEMPO 2303/2308 VRB02KT

Weather observations and forecasts of more than 4000 airports (METAR and TAF reports).

The available stations are represented by yellow and red dots on the map.

Hover mouse over dot to see the name of the station.

Then click to see weather observations and forecasts.

To change the map : click on the green buttons with a black cross to zoom in, on the green button with a dash to zoom out, or on the green arrows for adjacent maps.


METAR-TAF: